Dodge City Regional Airport
KDDC : now visible

Airfield :











YOU CAN JOIN US ON...

 
LOGIN :

Register | Disclaimer

   EN    FR    IT 

 









Legend :    VFR   Marginal VFR   IFR   Intensive IFR   Very Intensive IFR
Visi :
Ceiling :
>= 8 km
>= 3000ft
5 to 8 km
1000 to 3000 ft
1500m to 5 km
500 to 1000 ft
800 to 1500m
200 to 500 ft
< 800m
< 200 ft
Symbols :   Thunderstorms  Fog  Heavy snow  Heavy precipitations  Wind > 20 kt






- Airport Elevation : 2594 ft
- IATA code : DDC


KDDC - Dodge City Regional

CURRENT METAR :
  • 300752Z AUTO 17016KT 10SM CLR 17/07 A3007 RMK AO2 SLP156 T01670067

EXPIRED METARs :
  • 300652Z AUTO 16014KT 9SM CLR 17/07 A3007 RMK AO2 SLP157 T01720067
  • 300552Z AUTO 16016G25KT 10SM CLR 18/07 A3008 RMK AO2 SLP160 T01830067 10261 20183 403000111 50000

TAF KDDC
Valid from the 30 at 06:00 until the 01 at 06:00 UTC


300520Z 3006/0106 15018G26KT P6SM SKC
FM301400 18017G25KT P6SM SCT250
FM302100 17018G26KT P6SM SCT250
KZKC FIR / North America



MET'MAP, your aeronautical weather chart ! - Copyright ORBIFLY December 2007 - Disclaimer

ORBIFLY MET'MAP TEAM :

Programming & Development : Alexandra Zaïnal
Original concept : Baudouin d'Aumeries
Technical & hardware support : Manuel Goepfert
Assistance : Marc-Olivier Méhu




SOURCES & CREDITS :

   NOAA       Earth
Advisory